createdAt,value
2023-03-04T00:00:21.471Z,1.70
2023-03-04T00:02:26.544Z,1.70
2023-03-04T00:04:35.085Z,1.70
2023-03-04T00:06:43.627Z,1.70
2023-03-04T00:08:49.052Z,1.80
2023-03-04T00:10:54.049Z,1.80
2023-03-04T00:13:05.796Z,1.90
2023-03-04T00:15:13.147Z,1.90
2023-03-04T00:17:18.126Z,1.90
2023-03-04T00:19:24.349Z,1.80
2023-03-04T00:21:29.670Z,1.80
2023-03-04T00:23:35.974Z,1.80
2023-03-04T00:25:43.647Z,1.80
2023-03-04T00:27:48.705Z,1.80
2023-03-04T00:29:56.269Z,1.80
2023-03-04T00:32:03.920Z,1.80
2023-03-04T00:34:11.159Z,1.80
2023-03-04T00:36:16.204Z,1.80
2023-03-04T00:38:22.184Z,1.80
2023-03-04T00:40:27.622Z,1.90
2023-03-04T00:42:32.624Z,1.80
2023-03-04T00:44:37.695Z,1.90
2023-03-04T00:46:45.288Z,1.90
2023-03-04T00:48:50.358Z,2.00
2023-03-04T00:50:55.523Z,1.90
2023-03-04T00:53:02.556Z,1.90
2023-03-04T00:55:10.124Z,1.90
2023-03-04T00:57:17.671Z,1.90
2023-03-04T00:59:23.530Z,1.90
2023-03-04T01:01:29.296Z,1.90
2023-03-04T01:03:36.895Z,2.00
2023-03-04T01:05:45.354Z,2.00
2023-03-04T01:07:50.724Z,2.00
2023-03-04T01:09:55.749Z,2.00
2023-03-04T01:12:01.172Z,2.00
2023-03-04T01:14:07.709Z,1.90
2023-03-04T01:16:13.052Z,2.00
2023-03-04T01:18:18.263Z,2.00
2023-03-04T01:20:25.922Z,2.00
2023-03-04T01:22:31.061Z,1.90
2023-03-04T01:24:36.660Z,2.00
2023-03-04T01:26:41.644Z,2.00
2023-03-04T01:28:46.751Z,2.00
2023-03-04T01:30:51.765Z,2.00
2023-03-04T01:32:56.803Z,2.00
2023-03-04T01:35:01.876Z,1.90
2023-03-04T01:37:11.770Z,2.00
2023-03-04T01:39:16.829Z,2.00
2023-03-04T01:41:28.535Z,2.00
2023-03-04T01:43:34.894Z,2.00
2023-03-04T01:45:41.078Z,2.00
2023-03-04T01:47:50.974Z,1.90
2023-03-04T01:50:01.878Z,2.00
2023-03-04T01:52:13.164Z,2.00
2023-03-04T01:54:18.789Z,2.00
2023-03-04T01:56:28.377Z,2.00
2023-03-04T01:58:36.334Z,2.00
2023-03-04T02:00:42.211Z,2.00
2023-03-04T02:02:47.430Z,2.00
2023-03-04T02:04:55.309Z,2.00
2023-03-04T02:07:04.599Z,2.10
2023-03-04T02:09:14.100Z,2.00
2023-03-04T02:11:19.177Z,2.00
2023-03-04T02:13:27.103Z,2.00
2023-03-04T02:15:35.604Z,2.00
2023-03-04T02:17:41.151Z,1.90
2023-03-04T02:19:56.064Z,2.00
2023-03-04T02:22:01.684Z,1.90
2023-03-04T02:24:19.472Z,1.90
2023-03-04T02:26:29.538Z,1.90
2023-03-04T02:28:34.896Z,2.00
2023-03-04T02:30:40.163Z,2.00
2023-03-04T02:32:45.497Z,2.00
2023-03-04T02:34:53.527Z,2.00
2023-03-04T02:37:00.284Z,2.00
2023-03-04T02:39:14.842Z,1.90
2023-03-04T02:41:25.076Z,2.00
2023-03-04T02:43:32.631Z,1.90
2023-03-04T02:45:42.786Z,2.00
2023-03-04T02:47:49.491Z,1.90
2023-03-04T02:49:54.458Z,1.90
2023-03-04T02:52:05.051Z,2.00
2023-03-04T02:54:21.494Z,1.90
2023-03-04T02:56:26.914Z,2.00
2023-03-04T02:58:35.039Z,2.00
2023-03-04T03:00:40.664Z,1.90
2023-03-04T03:02:49.077Z,1.90
2023-03-04T03:04:54.711Z,2.00
2023-03-04T03:07:01.647Z,2.00
2023-03-04T03:09:09.257Z,2.00
2023-03-04T03:11:15.238Z,2.00
2023-03-04T03:13:21.947Z,2.00
2023-03-04T03:15:30.159Z,1.80
2023-03-04T03:17:35.070Z,1.90
2023-03-04T03:19:42.923Z,1.80
2023-03-04T03:21:50.110Z,1.90
2023-03-04T03:23:55.956Z,1.90
2023-03-04T03:26:01.139Z,1.90
2023-03-04T03:28:08.935Z,1.90
2023-03-04T03:30:20.332Z,1.90
2023-03-04T03:32:28.388Z,1.80
2023-03-04T03:34:34.512Z,1.80
2023-03-04T03:36:39.712Z,1.80
2023-03-04T03:38:45.657Z,1.90
2023-03-04T03:40:51.036Z,2.00
2023-03-04T03:43:00.028Z,1.90
2023-03-04T03:45:05.009Z,2.00
2023-03-04T03:47:10.938Z,2.00
2023-03-04T03:49:18.743Z,2.00
2023-03-04T03:51:24.378Z,2.10
2023-03-04T03:53:29.368Z,2.10
2023-03-04T03:55:37.764Z,2.10
2023-03-04T03:57:42.787Z,2.10
2023-03-04T03:59:47.675Z,2.10
2023-03-04T04:01:53.600Z,2.00
2023-03-04T04:03:58.608Z,2.00
2023-03-04T04:06:06.516Z,2.00
2023-03-04T04:08:15.897Z,2.10
2023-03-04T04:10:21.625Z,2.10
2023-03-04T04:12:29.185Z,2.00
2023-03-04T04:14:34.558Z,2.00
2023-03-04T04:16:39.481Z,2.00
2023-03-04T04:18:45.368Z,1.90
2023-03-04T04:20:50.381Z,1.90
2023-03-04T04:22:58.140Z,2.00
2023-03-04T04:25:05.433Z,2.00
2023-03-04T04:27:14.363Z,1.90
2023-03-04T04:29:19.918Z,1.90
2023-03-04T04:31:24.821Z,1.90
2023-03-04T04:33:32.522Z,1.90
2023-03-04T04:35:39.316Z,2.00
2023-03-04T04:37:44.361Z,1.90
2023-03-04T04:39:51.861Z,1.90
2023-03-04T04:41:56.803Z,1.90
2023-03-04T04:44:02.547Z,1.90
2023-03-04T04:46:08.169Z,1.90
2023-03-04T04:48:14.690Z,1.90
2023-03-04T04:50:20.827Z,1.90
2023-03-04T04:52:28.050Z,1.90
2023-03-04T04:54:34.885Z,1.80
2023-03-04T04:56:42.536Z,1.90
2023-03-04T04:58:47.891Z,1.90
2023-03-04T05:00:52.932Z,1.90
2023-03-04T05:02:57.943Z,2.00
2023-03-04T05:05:05.420Z,1.90
2023-03-04T05:07:10.744Z,2.00
2023-03-04T05:09:16.151Z,2.00
2023-03-04T05:11:23.758Z,2.00
2023-03-04T05:13:33.780Z,2.00
2023-03-04T05:15:41.282Z,2.10
2023-03-04T05:17:47.800Z,2.00
2023-03-04T05:19:52.752Z,2.10
2023-03-04T05:21:57.769Z,2.10
2023-03-04T05:24:02.952Z,2.10
2023-03-04T05:26:09.422Z,2.00
2023-03-04T05:28:14.732Z,2.10
2023-03-04T05:30:23.015Z,2.10
2023-03-04T05:32:30.576Z,2.00
2023-03-04T05:34:35.840Z,2.10
2023-03-04T05:36:40.818Z,2.10
2023-03-04T05:38:45.729Z,2.10
2023-03-04T05:40:52.681Z,2.10
2023-03-04T05:42:57.861Z,2.10
2023-03-04T05:45:04.002Z,2.00
2023-03-04T05:47:13.780Z,2.10
2023-03-04T05:49:19.720Z,2.10
2023-03-04T05:51:29.943Z,2.00
2023-03-04T05:53:36.960Z,2.10
2023-03-04T05:55:42.195Z,2.10
2023-03-04T05:57:47.770Z,2.10
2023-03-04T05:59:52.715Z,2.10
2023-03-04T06:01:59.540Z,2.10
2023-03-04T06:04:08.079Z,2.10
2023-03-04T06:06:13.834Z,2.10
2023-03-04T06:08:18.844Z,2.10
2023-03-04T06:10:25.075Z,2.10
2023-03-04T06:12:30.103Z,2.10
2023-03-04T06:14:35.828Z,2.10
2023-03-04T06:16:41.376Z,2.10
2023-03-04T06:18:47.375Z,2.20
2023-03-04T06:20:59.199Z,2.10
2023-03-04T06:23:05.071Z,2.10
2023-03-04T06:25:12.602Z,2.10
2023-03-04T06:27:18.538Z,2.20
2023-03-04T06:29:26.940Z,2.10
2023-03-04T06:31:33.336Z,2.10
2023-03-04T06:33:39.071Z,2.10
2023-03-04T06:35:44.903Z,2.20
2023-03-04T06:37:52.815Z,2.20
2023-03-04T06:39:57.802Z,2.20
2023-03-04T06:42:02.738Z,2.20
2023-03-04T06:44:08.443Z,2.20
2023-03-04T06:46:17.148Z,2.20
2023-03-04T06:48:22.147Z,2.20
2023-03-04T06:50:28.026Z,2.20
2023-03-04T06:52:34.432Z,2.20
2023-03-04T06:54:44.710Z,2.30
2023-03-04T06:56:51.153Z,2.30
2023-03-04T06:59:09.102Z,2.30
2023-03-04T07:01:16.747Z,2.30
2023-03-04T07:03:24.335Z,2.30
2023-03-04T07:05:31.023Z,2.30
2023-03-04T07:07:39.590Z,2.40
2023-03-04T07:09:47.152Z,2.40
2023-03-04T07:11:53.044Z,2.30
2023-03-04T07:13:58.370Z,2.40
2023-03-04T07:16:04.700Z,2.40
2023-03-04T07:18:09.811Z,2.40
2023-03-04T07:20:23.864Z,2.40
2023-03-04T07:22:32.307Z,2.40
2023-03-04T07:24:42.480Z,2.50
2023-03-04T07:26:52.954Z,2.50
2023-03-04T07:29:04.638Z,2.50
2023-03-04T07:31:24.802Z,2.50
2023-03-04T07:33:31.660Z,2.50
2023-03-04T07:35:36.973Z,2.50
2023-03-04T07:37:43.196Z,2.60
2023-03-04T07:39:49.675Z,2.60
2023-03-04T07:41:59.230Z,2.50
2023-03-04T07:44:05.430Z,2.60
2023-03-04T07:46:13.359Z,2.60
2023-03-04T07:48:21.171Z,2.60
2023-03-04T07:50:26.390Z,2.70
2023-03-04T07:52:31.428Z,2.60
2023-03-04T07:54:38.222Z,2.60
2023-03-04T07:56:46.486Z,2.60
2023-03-04T07:58:56.645Z,2.70
2023-03-04T08:01:03.035Z,2.70
2023-03-04T08:03:08.584Z,2.70
2023-03-04T08:05:14.057Z,2.70
2023-03-04T08:07:19.880Z,2.70
2023-03-04T08:09:27.663Z,2.70
2023-03-04T08:11:34.584Z,2.70
2023-03-04T08:13:44.050Z,2.70
2023-03-04T08:15:51.655Z,2.70
2023-03-04T08:17:58.848Z,2.80
2023-03-04T08:20:04.476Z,2.80
2023-03-04T08:22:10.045Z,2.80
2023-03-04T08:24:15.818Z,2.90
2023-03-04T08:26:24.914Z,2.90
2023-03-04T08:28:29.940Z,2.90
2023-03-04T08:30:35.757Z,2.90
2023-03-04T08:32:45.690Z,2.80
2023-03-04T08:34:55.345Z,2.90
2023-03-04T08:37:02.546Z,2.90
2023-03-04T08:39:10.539Z,3.00
2023-03-04T08:41:18.704Z,3.00
2023-03-04T08:43:25.292Z,3.00
2023-03-04T08:45:32.380Z,3.00
2023-03-04T08:47:37.818Z,3.00
2023-03-04T08:49:45.996Z,3.00
2023-03-04T08:51:53.148Z,3.10
2023-03-04T08:53:58.418Z,3.10
2023-03-04T08:56:04.520Z,3.10
2023-03-04T08:58:12.480Z,3.10
2023-03-04T09:00:18.544Z,3.20
2023-03-04T09:02:25.104Z,3.10
2023-03-04T09:04:30.505Z,3.20
2023-03-04T09:06:42.491Z,3.20
2023-03-04T09:08:49.032Z,3.20
2023-03-04T09:10:58.257Z,3.20
2023-03-04T09:13:06.531Z,3.20
2023-03-04T09:15:13.876Z,3.30
2023-03-04T09:17:19.784Z,3.30
2023-03-04T09:19:25.323Z,3.20
2023-03-04T09:21:34.448Z,3.30
2023-03-04T09:23:43.114Z,3.40
2023-03-04T09:25:50.059Z,3.40
2023-03-04T09:28:01.439Z,3.40
2023-03-04T09:30:08.782Z,3.40
2023-03-04T09:32:17.789Z,3.50
2023-03-04T09:34:23.433Z,3.50
2023-03-04T09:36:30.620Z,3.50
2023-03-04T09:38:41.032Z,3.50
2023-03-04T09:40:55.811Z,3.50
2023-03-04T09:43:08.297Z,3.50
2023-03-04T09:45:24.579Z,3.50
2023-03-04T09:47:36.651Z,3.60
2023-03-04T09:49:47.082Z,3.60
2023-03-04T09:52:05.161Z,3.60
2023-03-04T09:54:14.829Z,3.70
2023-03-04T09:56:22.823Z,3.70
2023-03-04T09:58:40.949Z,3.80
2023-03-04T10:00:49.876Z,3.80
2023-03-04T10:03:22.921Z,3.70
2023-03-04T10:05:32.844Z,3.80
2023-03-04T10:07:46.184Z,3.80
2023-03-04T10:09:56.914Z,3.80
2023-03-04T10:12:10.689Z,3.80
2023-03-04T10:14:36.538Z,3.80
2023-03-04T10:16:48.488Z,3.80
2023-03-04T10:19:02.425Z,3.80
2023-03-04T10:21:26.168Z,3.90
2023-03-04T10:23:34.445Z,3.90
2023-03-04T10:25:47.231Z,4.00
2023-03-04T10:27:59.932Z,4.00
2023-03-04T10:30:04.907Z,4.10
2023-03-04T10:32:15.370Z,4.20
2023-03-04T10:34:24.617Z,4.20
2023-03-04T10:36:59.542Z,4.40
2023-03-04T10:39:10.437Z,4.40
2023-03-04T10:41:18.556Z,4.40
2023-03-04T10:43:27.375Z,4.40
2023-03-04T10:45:36.719Z,4.40
2023-03-04T10:47:42.732Z,4.50
2023-03-04T10:49:59.349Z,4.60
2023-03-04T10:52:17.067Z,4.50
2023-03-04T10:54:33.639Z,4.50
2023-03-04T10:56:43.025Z,4.60
2023-03-04T10:58:50.608Z,4.70
2023-03-04T11:01:10.170Z,4.60
2023-03-04T11:03:39.120Z,4.70
2023-03-04T11:05:44.115Z,4.80
2023-03-04T11:07:56.216Z,4.80
2023-03-04T11:10:16.888Z,4.70
2023-03-04T11:12:35.959Z,4.80
2023-03-04T11:14:49.234Z,4.80
2023-03-04T11:17:00.551Z,4.90
2023-03-04T11:19:18.877Z,4.90
2023-03-04T11:21:27.842Z,4.90
2023-03-04T11:23:45.286Z,5.00
2023-03-04T11:25:59.474Z,4.90
2023-03-04T11:28:15.896Z,4.90
2023-03-04T11:30:40.491Z,4.90
2023-03-04T11:32:52.703Z,4.90
2023-03-04T11:35:04.604Z,4.90
2023-03-04T11:37:22.972Z,4.90
2023-03-04T11:39:39.875Z,4.90
2023-03-04T11:41:51.240Z,4.90
2023-03-04T11:43:57.630Z,4.90
2023-03-04T11:46:55.558Z,5.00
2023-03-04T11:49:20.473Z,5.00
2023-03-04T11:51:36.821Z,5.00
2023-03-04T11:53:56.189Z,4.90
2023-03-04T11:56:18.401Z,4.90
2023-03-04T11:58:48.000Z,5.00
2023-03-04T12:01:04.263Z,5.10
2023-03-04T12:03:48.521Z,5.10
2023-03-04T12:06:05.374Z,5.10
2023-03-04T12:08:38.537Z,5.20
2023-03-04T12:10:52.479Z,5.20
2023-03-04T12:13:16.986Z,5.20
2023-03-04T12:15:31.233Z,5.20
2023-03-04T12:18:03.620Z,5.40
2023-03-04T12:20:36.065Z,5.30
2023-03-04T12:22:48.532Z,5.40
2023-03-04T12:25:39.255Z,5.30
2023-03-04T12:27:52.068Z,5.30
2023-03-04T12:30:06.259Z,5.40
2023-03-04T12:32:22.038Z,5.40
2023-03-04T12:34:43.004Z,5.40
2023-03-04T12:37:01.992Z,5.40
2023-03-04T12:39:29.068Z,5.50
2023-03-04T12:41:50.185Z,5.50
2023-03-04T12:44:06.740Z,5.60
2023-03-04T12:46:26.285Z,5.60
2023-03-04T12:48:36.196Z,5.60
2023-03-04T12:50:53.240Z,5.70
2023-03-04T12:53:14.130Z,5.80
2023-03-04T12:55:27.504Z,5.90
2023-03-04T12:57:34.416Z,5.90
2023-03-04T12:59:45.835Z,5.80
2023-03-04T13:02:02.001Z,5.80
2023-03-04T13:04:17.226Z,5.80
2023-03-04T13:06:36.790Z,5.90
2023-03-04T13:08:58.388Z,5.80
2023-03-04T13:11:26.852Z,5.90
2023-03-04T13:13:42.271Z,5.90
2023-03-04T13:15:47.695Z,5.90
2023-03-04T13:17:54.749Z,5.90
2023-03-04T13:20:20.648Z,5.90
2023-03-04T13:22:48.920Z,6.00
2023-03-04T13:24:59.428Z,6.00
2023-03-04T13:27:04.697Z,5.90
2023-03-04T13:29:37.328Z,5.90
2023-03-04T13:32:02.557Z,5.90
2023-03-04T13:34:08.318Z,5.80
2023-03-04T13:37:00.061Z,5.90
2023-03-04T13:39:29.849Z,5.90
2023-03-04T13:41:53.733Z,5.90
2023-03-04T13:44:00.578Z,5.80
2023-03-04T13:46:46.687Z,5.90
2023-03-04T13:49:07.608Z,6.00
2023-03-04T13:51:28.823Z,5.90
2023-03-04T13:53:46.562Z,5.90
2023-03-04T13:56:31.556Z,6.00
2023-03-04T13:58:40.887Z,6.00
2023-03-04T14:00:55.224Z,6.00
2023-03-04T14:03:15.808Z,6.00
2023-03-04T14:05:20.889Z,6.00
2023-03-04T14:07:30.334Z,6.00
2023-03-04T14:09:39.044Z,6.00
2023-03-04T14:11:47.028Z,6.00
2023-03-04T14:13:55.119Z,6.00
2023-03-04T14:16:02.518Z,6.00
2023-03-04T14:18:11.859Z,6.10
2023-03-04T14:20:31.623Z,6.00
2023-03-04T14:22:45.628Z,6.10
2023-03-04T14:25:05.603Z,6.10
2023-03-04T14:27:16.276Z,6.10
2023-03-04T14:29:31.836Z,6.10
2023-03-04T14:31:39.054Z,6.10
2023-03-04T14:33:49.552Z,6.20
2023-03-04T14:35:59.212Z,6.20
2023-03-04T14:38:07.765Z,6.30
2023-03-04T14:40:29.382Z,6.20
2023-03-04T14:42:42.826Z,6.20
2023-03-04T14:44:53.792Z,6.20
2023-03-04T14:47:07.958Z,6.20
2023-03-04T14:49:15.980Z,6.10
2023-03-04T14:51:36.274Z,6.10
2023-03-04T14:53:59.290Z,6.10
2023-03-04T14:56:07.464Z,6.10
2023-03-04T14:58:24.757Z,6.10
2023-03-04T15:00:37.721Z,6.10
2023-03-04T15:02:42.848Z,6.10
2023-03-04T15:04:48.741Z,6.10
2023-03-04T15:06:57.086Z,6.10
2023-03-04T15:09:05.354Z,6.10
2023-03-04T15:11:16.699Z,6.10
2023-03-04T15:13:43.750Z,6.10
2023-03-04T15:15:52.759Z,6.10
2023-03-04T15:18:03.529Z,6.10
2023-03-04T15:20:27.478Z,6.10
2023-03-04T15:22:33.270Z,6.00
2023-03-04T15:24:38.177Z,6.00
2023-03-04T15:26:50.521Z,6.00
2023-03-04T15:28:55.561Z,6.00
2023-03-04T15:31:03.208Z,6.00
2023-03-04T15:33:12.929Z,6.00
2023-03-04T15:35:21.924Z,6.00
2023-03-04T15:37:30.756Z,6.00
2023-03-04T15:39:38.627Z,6.00
2023-03-04T15:41:44.157Z,6.00
2023-03-04T15:43:49.144Z,6.00
2023-03-04T15:45:55.615Z,6.00
2023-03-04T15:48:04.357Z,6.00
2023-03-04T15:50:12.491Z,5.90
2023-03-04T15:52:22.233Z,5.90
2023-03-04T15:54:33.800Z,5.90
2023-03-04T15:56:38.858Z,6.00
2023-03-04T15:58:44.170Z,6.00
2023-03-04T16:00:52.650Z,5.90
2023-03-04T16:02:57.916Z,5.90
2023-03-04T16:05:07.846Z,5.90
2023-03-04T16:07:22.023Z,6.00
2023-03-04T16:09:27.067Z,6.00
2023-03-04T16:11:37.383Z,6.00
2023-03-04T16:13:42.284Z,5.90
2023-03-04T16:15:48.517Z,6.00
2023-03-04T16:17:53.689Z,5.90
2023-03-04T16:20:01.674Z,5.90
2023-03-04T16:22:09.825Z,5.90
2023-03-04T16:24:22.105Z,5.90
2023-03-04T16:26:32.886Z,5.80
2023-03-04T16:28:39.356Z,5.80
2023-03-04T16:30:45.132Z,5.90
2023-03-04T16:32:51.333Z,5.90
2023-03-04T16:34:56.419Z,5.80
2023-03-04T16:37:05.543Z,5.80
2023-03-04T16:39:29.605Z,5.80
2023-03-04T16:41:37.882Z,5.80
2023-03-04T16:43:44.210Z,5.70
2023-03-04T16:45:49.440Z,5.70
2023-03-04T16:47:55.659Z,5.70
2023-03-04T16:50:14.529Z,5.70
2023-03-04T16:52:31.904Z,5.70
2023-03-04T16:54:42.246Z,5.70
2023-03-04T16:56:48.401Z,5.70
2023-03-04T16:58:58.813Z,5.70
2023-03-04T17:01:04.780Z,5.60
2023-03-04T17:03:13.537Z,5.60
2023-03-04T17:05:23.009Z,5.60
2023-03-04T17:07:28.263Z,5.60
2023-03-04T17:09:37.053Z,5.60
2023-03-04T17:11:45.192Z,5.60
2023-03-04T17:13:51.758Z,5.50
2023-03-04T17:15:57.166Z,5.50
2023-03-04T17:18:02.373Z,5.50
2023-03-04T17:20:11.945Z,5.50
2023-03-04T17:22:19.375Z,5.40
2023-03-04T17:24:26.673Z,5.40
2023-03-04T17:26:32.939Z,5.40
2023-03-04T17:28:42.414Z,5.30
2023-03-04T17:30:48.137Z,5.30
2023-03-04T17:32:53.712Z,5.30
2023-03-04T17:34:59.162Z,5.30
2023-03-04T17:37:06.547Z,5.20
2023-03-04T17:39:13.091Z,5.20
2023-03-04T17:41:19.437Z,5.30
2023-03-04T17:43:24.448Z,5.30
2023-03-04T17:45:32.302Z,5.20
2023-03-04T17:47:39.885Z,5.20
2023-03-04T17:49:45.732Z,5.20
2023-03-04T17:51:53.713Z,5.20
2023-03-04T17:54:01.441Z,5.20
2023-03-04T17:56:11.031Z,5.20
2023-03-04T17:58:17.698Z,5.10
2023-03-04T18:00:26.793Z,5.10
2023-03-04T18:02:35.801Z,5.10
2023-03-04T18:04:41.496Z,5.10
2023-03-04T18:06:47.899Z,5.10
2023-03-04T18:08:54.231Z,5.10
2023-03-04T18:10:59.350Z,5.10
2023-03-04T18:13:05.519Z,5.00
2023-03-04T18:15:12.021Z,5.00
2023-03-04T18:17:18.096Z,5.00
2023-03-04T18:19:26.548Z,4.90
2023-03-04T18:21:35.327Z,4.80
2023-03-04T18:23:42.628Z,4.80
2023-03-04T18:25:48.113Z,4.80
2023-03-04T18:27:54.245Z,4.70
2023-03-04T18:30:01.147Z,4.80
2023-03-04T18:32:13.704Z,4.70
2023-03-04T18:34:20.291Z,4.70
2023-03-04T18:36:29.811Z,4.70
2023-03-04T18:38:36.204Z,4.70
2023-03-04T18:40:42.209Z,4.70
2023-03-04T18:42:52.946Z,4.60
2023-03-04T18:45:00.625Z,4.60
2023-03-04T18:47:07.049Z,4.70
2023-03-04T18:49:15.999Z,4.60
2023-03-04T18:51:22.628Z,4.60
2023-03-04T18:53:32.867Z,4.60
2023-03-04T18:55:38.730Z,4.70
2023-03-04T18:57:50.305Z,4.70
2023-03-04T19:00:00.080Z,4.60
2023-03-04T19:02:17.606Z,4.60
2023-03-04T19:04:28.807Z,4.50
2023-03-04T19:06:37.352Z,4.50
2023-03-04T19:08:44.965Z,4.50
2023-03-04T19:10:52.594Z,4.40
2023-03-04T19:12:59.568Z,4.50
2023-03-04T19:15:06.005Z,4.50
2023-03-04T19:17:12.214Z,4.40
2023-03-04T19:19:17.874Z,4.30
2023-03-04T19:21:23.309Z,4.30
2023-03-04T19:23:29.689Z,4.10
2023-03-04T19:25:39.880Z,4.20
2023-03-04T19:27:46.225Z,4.20
2023-03-04T19:29:52.218Z,4.10
2023-03-04T19:31:57.312Z,4.20
2023-03-04T19:34:03.893Z,4.10
2023-03-04T19:36:10.790Z,4.20
2023-03-04T19:38:16.441Z,4.20
2023-03-04T19:40:22.449Z,4.20
2023-03-04T19:42:31.290Z,4.20
2023-03-04T19:44:37.249Z,4.20
2023-03-04T19:46:45.280Z,4.20
2023-03-04T19:48:51.909Z,4.20
2023-03-04T19:50:56.879Z,4.20
2023-03-04T19:53:01.907Z,4.20
2023-03-04T19:55:07.718Z,4.10
2023-03-04T19:57:13.861Z,4.10
2023-03-04T19:59:21.929Z,4.00
2023-03-04T20:01:30.734Z,4.00
2023-03-04T20:03:36.589Z,4.00
2023-03-04T20:05:42.773Z,4.10
2023-03-04T20:07:47.769Z,4.10
2023-03-04T20:09:53.737Z,4.10
2023-03-04T20:12:01.514Z,4.00
2023-03-04T20:14:07.592Z,4.00
2023-03-04T20:16:19.522Z,4.00
2023-03-04T20:18:24.978Z,4.00
2023-03-04T20:20:31.064Z,4.00
2023-03-04T20:22:35.981Z,4.00
2023-03-04T20:24:41.045Z,4.00
2023-03-04T20:26:45.979Z,4.10
2023-03-04T20:28:50.908Z,4.00
2023-03-04T20:30:56.620Z,3.90
2023-03-04T20:33:04.137Z,4.00
2023-03-04T20:35:14.239Z,4.00
2023-03-04T20:37:22.947Z,4.00
2023-03-04T20:39:30.046Z,4.00
2023-03-04T20:41:39.469Z,4.10
2023-03-04T20:43:46.535Z,4.10
2023-03-04T20:45:54.088Z,4.00
2023-03-04T20:47:59.677Z,4.00
2023-03-04T20:50:08.810Z,4.00
2023-03-04T20:52:16.187Z,4.00
2023-03-04T20:54:21.736Z,4.00
2023-03-04T20:56:28.768Z,4.00
2023-03-04T20:58:34.481Z,4.00
2023-03-04T21:00:40.273Z,4.00
2023-03-04T21:02:46.060Z,4.00
2023-03-04T21:04:51.455Z,4.00
2023-03-04T21:07:00.682Z,4.00
2023-03-04T21:09:10.020Z,3.90
2023-03-04T21:11:18.182Z,3.90
2023-03-04T21:13:26.851Z,4.00
2023-03-04T21:15:32.429Z,3.90
2023-03-04T21:17:37.905Z,3.90
2023-03-04T21:19:45.611Z,3.90
2023-03-04T21:21:53.046Z,3.90
2023-03-04T21:24:02.140Z,3.90
2023-03-04T21:26:08.164Z,3.90
2023-03-04T21:28:13.138Z,3.90
2023-03-04T21:30:18.241Z,3.90
2023-03-04T21:32:29.319Z,3.90
2023-03-04T21:34:38.780Z,3.90
2023-03-04T21:36:46.351Z,3.90
2023-03-04T21:38:51.880Z,3.90
2023-03-04T21:40:59.497Z,3.80
2023-03-04T21:43:05.682Z,3.80
2023-03-04T21:45:13.422Z,3.90
2023-03-04T21:47:20.537Z,3.80
2023-03-04T21:49:25.889Z,3.70
2023-03-04T21:51:32.141Z,3.70
2023-03-04T21:53:40.526Z,3.80
2023-03-04T21:55:45.633Z,3.80
2023-03-04T21:57:55.376Z,3.80
2023-03-04T22:00:00.600Z,3.80
2023-03-04T22:02:05.607Z,3.80
2023-03-04T22:04:11.694Z,3.80
2023-03-04T22:06:16.669Z,3.80
2023-03-04T22:08:23.645Z,3.80
2023-03-04T22:10:31.081Z,3.80
2023-03-04T22:12:36.126Z,3.70
2023-03-04T22:14:44.938Z,3.70
2023-03-04T22:16:55.806Z,3.70
2023-03-04T22:19:03.184Z,3.70
2023-03-04T22:21:12.439Z,3.70
2023-03-04T22:23:17.540Z,3.70
2023-03-04T22:25:23.766Z,3.70
2023-03-04T22:27:28.816Z,3.70
2023-03-04T22:29:36.169Z,3.70
2023-03-04T22:31:43.708Z,3.70
2023-03-04T22:33:50.957Z,3.60
2023-03-04T22:35:57.402Z,3.60
2023-03-04T22:38:02.454Z,3.60
2023-03-04T22:40:11.345Z,3.60
2023-03-04T22:42:16.354Z,3.60
2023-03-04T22:44:21.633Z,3.60
2023-03-04T22:46:30.769Z,3.70
2023-03-04T22:48:38.244Z,3.60
2023-03-04T22:50:45.633Z,3.60
2023-03-04T22:52:52.716Z,3.50
2023-03-04T22:54:58.749Z,3.60
2023-03-04T22:57:04.337Z,3.50
2023-03-04T22:59:14.204Z,3.50
2023-03-04T23:01:23.853Z,3.50
2023-03-04T23:03:30.301Z,3.50
2023-03-04T23:05:38.183Z,3.50
2023-03-04T23:07:44.204Z,3.50
2023-03-04T23:09:49.169Z,3.40
2023-03-04T23:11:54.136Z,3.40
2023-03-04T23:14:02.320Z,3.50
2023-03-04T23:16:09.771Z,3.40
2023-03-04T23:18:14.764Z,3.50
2023-03-04T23:20:23.023Z,3.50
2023-03-04T23:22:32.675Z,3.50
2023-03-04T23:24:38.341Z,3.50
2023-03-04T23:26:45.620Z,3.50
2023-03-04T23:28:51.142Z,3.50
2023-03-04T23:30:56.740Z,3.50
2023-03-04T23:33:03.710Z,3.50
2023-03-04T23:35:11.689Z,3.50
2023-03-04T23:37:16.805Z,3.50
2023-03-04T23:39:24.380Z,3.50
2023-03-04T23:41:34.880Z,3.50
2023-03-04T23:43:39.797Z,3.50
2023-03-04T23:45:45.145Z,3.50
2023-03-04T23:47:50.118Z,3.50
2023-03-04T23:49:57.930Z,3.50
2023-03-04T23:52:03.061Z,3.50
2023-03-04T23:54:08.472Z,3.50
2023-03-04T23:56:19.716Z,3.40
2023-03-04T23:58:26.886Z,3.40
